Time;durP1;ratioP1;P1;durP2;ratioP2;P2;SDS_P1;SDS_P2;PMS_P1;PMS_P2;Temp;Humidity;BMP_temperature;BMP_pressure;BME280_temperature;BME280_humidity;BME280_pressure;Samples;Min_cycle;Max_cycle;Signal;HPM_P1;HPM_P2
2022/06/18 02:53:01;;;;;;;11.80;6.82;;;20.70;68.70;;;;;;4787495;30;20470;-77
2022/06/18 02:55:35;;;;;;;15.18;7.03;;;20.70;68.80;;;;;;4772235;30;20164;-77
2022/06/18 02:58:10;;;;;;;12.52;6.38;;;20.80;68.90;;;;;;4772063;30;20055;-76
2022/06/18 03:00:38;;;;;;;12.55;6.80;;;20.80;68.80;;;;;;4772540;30;20197;-77
2022/06/18 03:03:06;;;;;;;12.00;6.25;;;20.90;68.80;;;;;;4787345;30;20114;-77
2022/06/18 03:05:32;;;;;;;10.45;6.05;;;20.90;68.70;;;;;;4789996;30;20491;-74
2022/06/18 03:07:58;;;;;;;12.25;7.03;;;21.00;68.80;;;;;;4772855;30;20124;-79
2022/06/18 03:13:08;;;;;;;13.93;5.65;;;21.00;68.50;;;;;;4793549;30;20054;-76
2022/06/18 03:15:34;;;;;;;8.77;4.75;;;21.10;68.50;;;;;;4793746;30;20066;-76
2022/06/18 03:18:01;;;;;;;10.90;5.60;;;21.10;68.50;;;;;;4793808;30;20047;-77
2022/06/18 03:20:49;;;;;;;8.50;5.38;;;21.10;69.10;;;;;;4793051;30;20054;-77
2022/06/18 03:23:17;;;;;;;10.07;4.85;;;21.20;68.60;;;;;;4793299;30;20139;-77
2022/06/18 03:25:42;;;;;;;7.80;4.53;;;21.20;68.70;;;;;;4793205;30;20051;-77
2022/06/18 03:28:12;;;;;;;7.15;5.13;;;21.20;68.70;;;;;;4793369;30;20123;-77
2022/06/18 03:30:39;;;;;;;6.88;4.93;;;21.20;68.70;;;;;;4793096;30;20119;-77
2022/06/18 03:33:05;;;;;;;13.70;5.55;;;21.20;68.70;;;;;;4793454;30;20059;-76
2022/06/18 03:35:31;;;;;;;10.50;4.88;;;21.20;68.60;;;;;;4793778;30;20066;-76
2022/06/18 03:37:57;;;;;;;7.28;5.32;;;21.20;68.60;;;;;;4793071;30;20367;-77
2022/06/18 03:40:23;;;;;;;11.32;5.63;;;21.30;68.70;;;;;;4792618;30;20051;-77
2022/06/18 03:42:48;;;;;;;11.07;5.50;;;21.30;68.60;;;;;;4792682;30;20124;-77
2022/06/18 03:45:14;;;;;;;9.73;4.90;;;21.20;68.60;;;;;;4793091;30;20058;-76
2022/06/18 03:47:40;;;;;;;7.65;4.68;;;21.30;68.50;;;;;;4793017;30;20051;-77
2022/06/18 03:50:06;;;;;;;14.50;5.80;;;21.30;68.60;;;;;;4793237;30;20159;-77
2022/06/18 03:52:32;;;;;;;10.70;6.00;;;21.20;68.40;;;;;;4793086;30;20066;-77
2022/06/18 03:54:57;;;;;;;14.30;6.72;;;21.20;68.40;;;;;;4792877;30;20059;-77
2022/06/18 03:57:26;;;;;;;15.55;7.40;;;21.20;68.40;;;;;;4792882;30;20051;-77
2022/06/18 03:59:51;;;;;;;15.25;7.85;;;21.10;68.50;;;;;;4793098;30;20051;-77
2022/06/18 04:02:17;;;;;;;12.82;7.90;;;21.10;68.60;;;;;;4777055;30;20134;-77
2022/06/18 04:04:43;;;;;;;15.10;7.50;;;21.00;68.70;;;;;;4792305;30;20083;-77
2022/06/18 04:07:17;;;;;;;13.70;7.57;;;21.00;68.80;;;;;;4792388;30;20047;-78
2022/06/18 04:09:43;;;;;;;19.20;8.07;;;20.90;68.80;;;;;;4792630;30;20059;-78
2022/06/18 04:12:09;;;;;;;13.52;7.32;;;20.90;69.00;;;;;;4792767;30;20127;-78
2022/06/18 04:14:36;;;;;;;16.92;7.50;;;20.80;69.00;;;;;;4792573;30;20055;-79
2022/06/18 04:17:02;;;;;;;11.57;6.97;;;20.80;69.10;;;;;;4776904;30;20383;-78
2022/06/18 04:19:28;;;;;;;15.02;7.85;;;20.80;69.20;;;;;;4792688;30;20372;-77
2022/06/18 04:21:53;;;;;;;11.50;6.78;;;20.80;69.30;;;;;;4791129;29;20051;-78
2022/06/18 04:24:19;;;;;;;16.55;7.40;;;20.80;69.30;;;;;;4792425;30;20060;-77
2022/06/18 04:26:45;;;;;;;13.48;6.65;;;20.80;69.30;;;;;;4792402;30;20047;-78
2022/06/18 04:29:12;;;;;;;12.73;6.88;;;20.80;69.30;;;;;;4792260;30;20043;-77
2022/06/18 04:31:38;;;;;;;15.70;7.13;;;20.70;69.30;;;;;;4792499;30;20077;-76
2022/06/18 04:34:03;;;;;;;12.68;6.47;;;20.70;69.30;;;;;;4792271;30;20451;-77
2022/06/18 04:36:37;;;;;;;16.52;6.25;;;20.70;69.40;;;;;;4792476;30;20374;-77
2022/06/18 04:39:03;;;;;;;11.48;7.05;;;20.70;69.50;;;;;;4776393;30;20065;-75
2022/06/18 04:41:29;;;;;;;12.75;6.47;;;20.60;69.50;;;;;;4792300;30;20051;-77
2022/06/18 04:43:55;;;;;;;14.30;6.30;;;20.60;69.50;;;;;;4791512;30;20043;-77
2022/06/18 04:46:21;;;;;;;13.57;6.13;;;20.70;69.60;;;;;;4792089;30;20090;-76
2022/06/18 04:48:47;;;;;;;12.73;5.95;;;20.60;69.60;;;;;;4776326;30;20062;-76
2022/06/18 04:51:13;;;;;;;9.52;5.60;;;20.60;69.60;;;;;;4791800;30;20074;-77
2022/06/18 04:53:39;;;;;;;9.00;5.65;;;20.60;69.70;;;;;;4791849;30;20071;-76
2022/06/18 04:56:06;;;;;;;12.50;6.43;;;20.60;69.70;;;;;;4776170;30;20116;-77
2022/06/18 04:58:32;;;;;;;9.65;5.72;;;20.60;69.70;;;;;;4791964;30;20137;-77
2022/06/18 05:00:59;;;;;;;10.60;5.57;;;20.60;69.70;;;;;;4801916;29;20130;-77
2022/06/18 05:03:25;;;;;;;11.00;7.07;;;20.60;69.70;;;;;;4773664;30;20120;-77
2022/06/18 05:05:52;;;;;;;10.88;6.03;;;20.60;69.70;;;;;;4774230;30;20055;-78
2022/06/18 05:08:17;;;;;;;11.45;6.00;;;20.60;69.80;;;;;;4782782;30;20491;-78
2022/06/18 05:10:44;;;;;;;14.00;6.03;;;20.60;69.80;;;;;;4791198;30;20055;-77
2022/06/18 05:13:10;;;;;;;9.93;5.82;;;20.60;69.80;;;;;;4791594;30;20066;-78
2022/06/18 05:15:37;;;;;;;10.80;5.18;;;20.60;69.90;;;;;;4790063;30;20458;-76
2022/06/18 05:18:03;;;;;;;15.02;5.85;;;20.60;69.90;;;;;;4791227;30;20083;-80
2022/06/18 05:20:29;;;;;;;14.88;5.68;;;20.70;70.00;;;;;;4775793;30;20093;-77
2022/06/18 05:22:54;;;;;;;10.50;5.60;;;20.70;70.00;;;;;;4791702;30;20062;-76
2022/06/18 05:25:20;;;;;;;12.70;5.50;;;20.70;70.10;;;;;;4791224;30;20371;-77
2022/06/18 05:27:47;;;;;;;9.50;5.10;;;20.70;70.10;;;;;;4775476;30;20340;-77
2022/06/18 05:30:17;;;;;;;10.68;4.85;;;20.70;70.20;;;;;;4775566;30;20414;-77
2022/06/18 05:32:44;;;;;;;10.07;4.47;;;20.70;70.30;;;;;;4791067;29;20056;-77
2022/06/18 05:35:13;;;;;;;9.13;4.68;;;20.70;70.50;;;;;;4791723;30;20123;-78
2022/06/18 05:37:39;;;;;;;11.07;4.90;;;20.70;70.60;;;;;;4791647;30;20368;-77
2022/06/18 05:40:06;;;;;;;9.98;5.00;;;20.70;70.70;;;;;;4790755;30;20100;-73
2022/06/18 05:42:32;;;;;;;9.60;5.18;;;20.70;70.90;;;;;;4791289;30;20067;-76
2022/06/18 05:44:58;;;;;;;12.93;4.85;;;20.70;71.30;;;;;;4791371;30;20055;-78
2022/06/18 05:47:32;;;;;;;9.65;4.28;;;20.80;71.10;;;;;;4786675;30;20051;-78
2022/06/18 05:49:59;;;;;;;8.75;4.45;;;20.80;71.00;;;;;;4789486;30;20067;-77
2022/06/18 05:52:26;;;;;;;8.57;4.57;;;20.80;71.00;;;;;;4774627;30;20082;-76
2022/06/18 05:54:52;;;;;;;10.07;4.25;;;20.70;71.00;;;;;;4790897;30;20134;-77
2022/06/18 05:57:19;;;;;;;11.90;4.50;;;20.70;71.10;;;;;;4790726;30;20074;-78
2022/06/18 05:59:46;;;;;;;14.80;4.45;;;20.60;71.30;;;;;;4790739;30;20059;-78
2022/06/18 06:02:13;;;;;;;9.38;4.10;;;20.70;71.70;;;;;;4790750;30;20055;-75
2022/06/18 06:04:40;;;;;;;12.70;3.90;;;20.70;72.00;;;;;;4790772;30;20066;-77
2022/06/18 06:07:06;;;;;;;12.40;3.85;;;20.70;72.10;;;;;;4790061;30;20055;-80
2022/06/18 06:12:16;;;;;;;14.80;3.90;;;20.80;72.50;;;;;;4790599;30;20130;-79
2022/06/18 06:14:42;;;;;;;8.98;3.53;;;20.80;72.50;;;;;;4774996;30;20116;-80
2022/06/18 06:17:14;;;;;;;7.32;3.55;;;20.70;72.40;;;;;;4789978;30;20054;-80
2022/06/18 06:19:40;;;;;;;6.47;2.75;;;20.70;72.30;;;;;;4771228;30;20051;-78
2022/06/18 06:22:06;;;;;;;7.30;2.78;;;20.70;72.40;;;;;;4771551;30;20047;-78
2022/06/18 06:24:31;;;;;;;6.53;2.13;;;20.70;72.40;;;;;;4789735;30;20104;-73
2022/06/18 06:26:57;;;;;;;7.18;1.55;;;20.80;72.40;;;;;;4790189;30;20047;-73
2022/06/18 06:29:23;;;;;;;3.65;1.30;;;20.70;72.20;;;;;;4774372;30;20443;-81
2022/06/18 06:31:49;;;;;;;4.20;1.20;;;20.70;72.20;;;;;;4786268;30;20047;-72
2022/06/18 06:34:15;;;;;;;7.05;1.95;;;20.70;72.40;;;;;;4766961;30;20469;-73
2022/06/18 06:36:41;;;;;;;3.30;1.17;;;20.60;72.50;;;;;;4770361;30;20146;-75
2022/06/18 06:39:06;;;;;;;3.08;1.17;;;20.60;72.50;;;;;;4780270;30;20059;-77
2022/06/18 06:41:33;;;;;;;1.52;0.95;;;20.60;72.50;;;;;;4772286;30;20055;-75
2022/06/18 06:43:59;;;;;;;3.08;1.30;;;20.60;72.50;;;;;;4781602;30;20479;-75
2022/06/18 06:46:25;;;;;;;2.85;1.20;;;20.60;72.40;;;;;;4789548;30;20094;-78
2022/06/18 06:48:50;;;;;;;4.45;1.48;;;20.60;72.50;;;;;;4774090;30;20080;-76
2022/06/18 06:51:23;;;;;;;6.35;1.20;;;20.60;72.50;;;;;;4773316;30;20490;-76
2022/06/18 06:53:49;;;;;;;1.60;0.70;;;20.60;72.30;;;;;;4789312;30;20047;-75
2022/06/18 06:59:01;;;;;;;4.78;1.20;;;20.60;72.60;;;;;;4789521;30;20051;-73
2022/06/18 07:01:27;;;;;;;2.67;0.70;;;20.60;72.70;;;;;;4789244;30;20058;-73
2022/06/18 07:03:52;;;;;;;4.53;0.80;;;20.60;72.70;;;;;;4789766;30;20085;-78
2022/06/18 07:06:18;;;;;;;6.40;1.13;;;20.60;72.70;;;;;;4774432;30;20108;-72
2022/06/18 07:08:44;;;;;;;4.35;0.80;;;20.70;72.70;;;;;;4789644;30;20073;-72
2022/06/18 07:11:12;;;;;;;3.25;0.90;;;20.70;72.60;;;;;;4788390;30;20051;-71
2022/06/18 07:13:38;;;;;;;4.68;0.80;;;20.70;72.60;;;;;;4789344;30;20432;-72
2022/06/18 07:16:04;;;;;;;3.97;1.10;;;20.60;72.50;;;;;;4789622;30;20051;-73
2022/06/18 07:18:35;;;;;;;3.58;1.35;;;20.70;72.60;;;;;;4789496;30;20203;-73
2022/06/18 07:21:06;;;;;;;3.00;1.02;;;20.70;72.70;;;;;;4788879;30;20171;-72
2022/06/18 07:23:33;;;;;;;1.80;0.90;;;20.60;72.60;;;;;;4773116;30;20474;-74
2022/06/18 07:25:58;;;;;;;6.57;1.02;;;20.70;72.90;;;;;;4789689;30;20127;-74
2022/06/18 07:28:25;;;;;;;5.38;1.02;;;20.70;73.20;;;;;;4789448;30;20418;-72
2022/06/18 07:30:51;;;;;;;7.53;1.23;;;20.80;73.50;;;;;;4789155;30;20057;-74
2022/06/18 07:33:23;;;;;;;5.53;1.23;;;20.90;73.50;;;;;;4772974;30;20064;-73
2022/06/18 07:35:49;;;;;;;6.18;1.42;;;21.00;73.50;;;;;;4789420;30;20047;-73
2022/06/18 07:38:15;;;;;;;12.27;1.40;;;21.10;73.40;;;;;;4788019;30;20478;-72
2022/06/18 07:40:50;;;;;;;7.50;1.77;;;21.20;73.20;;;;;;4789230;30;20051;-74
2022/06/18 07:43:21;;;;;;;13.43;1.80;;;21.20;73.30;;;;;;4773603;30;20471;-73
2022/06/18 07:45:46;;;;;;;17.00;1.60;;;21.30;73.10;;;;;;4774929;30;20143;-74
2022/06/18 07:48:13;;;;;;;12.57;1.85;;;21.30;73.00;;;;;;4788854;30;20083;-72
2022/06/18 07:50:43;;;;;;;8.38;1.67;;;21.40;72.70;;;;;;4789168;30;20044;-73
2022/06/18 07:53:16;;;;;;;10.80;2.13;;;21.40;72.80;;;;;;4788921;30;20078;-72
2022/06/18 07:55:42;;;;;;;9.45;1.30;;;21.40;72.70;;;;;;4790117;29;20065;-71
2022/06/18 07:58:07;;;;;;;7.18;1.58;;;21.40;72.70;;;;;;4792683;30;20379;-72
2022/06/18 08:00:33;;;;;;;9.63;1.75;;;21.50;72.80;;;;;;4792405;30;20112;-72
2022/06/18 08:02:59;;;;;;;17.63;2.45;;;21.50;72.40;;;;;;4791652;30;20047;-73
2022/06/18 08:05:27;;;;;;;5.82;1.33;;;21.50;72.20;;;;;;4792339;30;20063;-75
2022/06/18 08:07:53;;;;;;;11.73;1.83;;;21.50;71.80;;;;;;4792852;30;20059;-74
2022/06/18 08:10:20;;;;;;;15.27;1.83;;;21.60;71.80;;;;;;4792883;30;20435;-78
2022/06/18 08:12:46;;;;;;;13.90;2.03;;;21.60;71.90;;;;;;4776237;30;20159;-74
2022/06/18 08:15:13;;;;;;;12.55;1.92;;;21.60;72.10;;;;;;4776222;30;20086;-74
2022/06/18 08:17:38;;;;;;;12.88;2.05;;;21.60;72.20;;;;;;4792174;30;20114;-73
2022/06/18 08:20:06;;;;;;;10.27;1.20;;;21.70;72.20;;;;;;4792442;30;20448;-74
2022/06/18 08:22:33;;;;;;;9.43;2.38;;;21.70;72.20;;;;;;4792221;30;20121;-74
2022/06/18 08:25:00;;;;;;;9.02;1.83;;;21.70;72.30;;;;;;4791724;30;20430;-80
2022/06/18 08:27:26;;;;;;;7.18;1.25;;;21.80;72.10;;;;;;4791773;30;20127;-75
2022/06/18 08:29:52;;;;;;;13.18;1.58;;;21.80;72.10;;;;;;4791575;30;20070;-79
2022/06/18 08:32:18;;;;;;;9.98;1.33;;;21.80;72.20;;;;;;4792199;30;20059;-73
2022/06/18 08:34:44;;;;;;;6.72;1.17;;;21.80;72.40;;;;;;4783110;30;20372;-73
2022/06/18 08:37:10;;;;;;;8.02;1.20;;;21.80;72.20;;;;;;4767164;30;20051;-74
2022/06/18 08:39:38;;;;;;;4.25;1.10;;;21.90;72.30;;;;;;4792168;30;20471;-73
2022/06/18 08:42:27;;;;;;;5.55;1.45;;;21.90;72.20;;;;;;4792257;30;20122;-77
2022/06/18 08:45:16;;;;;;;13.30;1.52;;;21.90;72.30;;;;;;4791953;30;20051;-73
2022/06/18 08:48:14;;;;;;;9.10;1.48;;;22.00;72.00;;;;;;4791796;30;20047;-73
2022/06/18 08:50:51;;;;;;;3.95;1.10;;;21.90;71.00;;;;;;4766237;30;20373;-72
2022/06/18 08:53:38;;;;;;;6.68;1.27;;;21.90;70.60;;;;;;4791913;30;20375;-72
2022/06/18 08:56:10;;;;;;;5.57;0.95;;;21.90;70.50;;;;;;4791032;30;20062;-73
2022/06/18 08:59:00;;;;;;;6.88;1.20;;;21.90;70.10;;;;;;4791629;30;20463;-74
2022/06/18 09:01:29;;;;;;;8.25;1.25;;;21.90;70.10;;;;;;4791760;30;20051;-72
2022/06/18 09:04:04;;;;;;;7.60;1.20;;;21.90;70.50;;;;;;4775822;30;20242;-75
2022/06/18 09:06:48;;;;;;;9.80;1.27;;;21.80;70.70;;;;;;4791182;29;20059;-82
2022/06/18 09:09:32;;;;;;;7.95;1.38;;;21.90;70.80;;;;;;4791156;30;20058;-77
2022/06/18 09:12:27;;;;;;;7.55;1.08;;;21.90;70.90;;;;;;4784519;30;20058;-78
2022/06/18 09:15:03;;;;;;;6.28;1.00;;;21.90;70.90;;;;;;4790849;30;20051;-80
2022/06/18 09:17:40;;;;;;;9.80;1.42;;;22.00;71.20;;;;;;4761161;30;20055;-77
2022/06/18 09:20:09;;;;;;;11.90;1.70;;;22.00;71.30;;;;;;4791128;30;20473;-76
2022/06/18 09:22:41;;;;;;;5.60;1.00;;;22.00;70.70;;;;;;4790568;30;20051;-76
2022/06/18 09:25:19;;;;;;;9.43;1.58;;;22.00;69.80;;;;;;4791267;30;20114;-77
2022/06/18 09:27:58;;;;;;;4.90;1.10;;;21.90;69.80;;;;;;4790675;30;20450;-77
2022/06/18 09:30:32;;;;;;;4.22;1.13;;;21.90;70.40;;;;;;4791145;30;20059;-79
2022/06/18 09:33:12;;;;;;;5.85;0.85;;;21.90;70.40;;;;;;4791015;30;20466;-77
2022/06/18 09:35:47;;;;;;;5.63;1.17;;;21.90;71.00;;;;;;4791413;30;20055;-76
2022/06/18 09:38:23;;;;;;;2.95;0.90;;;22.00;70.60;;;;;;4774940;30;20055;-75
2022/06/18 09:40:52;;;;;;;2.10;0.57;;;22.00;70.70;;;;;;4791292;30;20058;-76
2022/06/18 09:43:42;;;;;;;6.80;1.30;;;22.10;70.60;;;;;;4790674;30;20051;-73
2022/06/18 09:46:18;;;;;;;6.82;1.25;;;22.10;69.70;;;;;;4790614;30;20371;-74
2022/06/18 09:48:44;;;;;;;6.00;1.25;;;22.00;69.60;;;;;;4774490;30;20070;-74
2022/06/18 09:51:22;;;;;;;5.07;1.02;;;22.10;69.70;;;;;;4790418;30;20395;-75
2022/06/18 09:53:48;;;;;;;5.85;0.80;;;22.10;70.00;;;;;;4790222;30;20109;-74
2022/06/18 09:56:32;;;;;;;5.43;0.93;;;22.10;70.20;;;;;;4790530;30;20096;-75
2022/06/18 09:59:25;;;;;;;6.20;1.08;;;22.20;70.00;;;;;;4784205;30;20070;-76
2022/06/18 10:01:53;;;;;;;7.85;0.98;;;22.20;70.30;;;;;;4775043;30;20051;-75
2022/06/18 10:07:24;;;;;;;4.80;0.90;;;22.20;70.20;;;;;;4790422;30;20383;-74
2022/06/18 10:10:05;;;;;;;3.15;0.90;;;22.20;70.10;;;;;;4790024;30;20414;-76
2022/06/18 10:12:32;;;;;;;5.00;0.93;;;22.30;70.20;;;;;;4765742;30;20383;-75
2022/06/18 10:15:00;;;;;;;5.82;1.25;;;22.30;70.10;;;;;;4790498;30;20047;-73
2022/06/18 10:17:44;;;;;;;6.38;0.80;;;22.30;69.90;;;;;;4760177;30;20059;-73
2022/06/18 10:20:18;;;;;;;;;;;22.30;69.80;;;;;;4790647;30;20086;-74
2022/06/18 10:23:05;;;;;;;6.00;1.60;;;22.30;70.20;;;;;;4789728;30;20406;-73
2022/06/18 10:25:41;;;;;;;6.85;0.68;;;22.30;69.90;;;;;;4774023;30;20146;-75
2022/06/18 10:28:40;;;;;;;12.43;1.27;;;22.30;69.70;;;;;;4789863;30;20065;-75
2022/06/18 10:31:16;;;;;;;7.32;0.90;;;22.40;69.70;;;;;;4784276;30;20055;-77
2022/06/18 10:34:05;;;;;;;2.40;0.57;;;22.40;68.90;;;;;;4771855;30;20495;-77
2022/06/18 10:36:59;;;;;;;5.75;0.77;;;22.50;67.20;;;;;;4775027;30;20128;-77
2022/06/18 10:39:31;;;;;;;3.60;0.60;;;22.50;67.70;;;;;;4774411;30;20063;-78
2022/06/18 10:42:07;;;;;;;6.32;1.00;;;22.50;66.90;;;;;;4789488;30;20055;-79
2022/06/18 10:45:18;;;;;;;1.92;0.52;;;22.60;65.20;;;;;;4790115;30;20062;-78
2022/06/18 10:47:48;;;;;;;5.93;0.82;;;22.70;63.60;;;;;;4772485;30;20085;-78
2022/06/18 10:50:17;;;;;;;3.05;0.73;;;22.70;64.80;;;;;;4774109;30;20051;-75
2022/06/18 10:52:44;;;;;;;6.78;0.85;;;22.60;65.50;;;;;;4773850;30;20090;-78
2022/06/18 10:55:18;;;;;;;6.13;0.70;;;22.60;66.00;;;;;;4773349;30;20091;-77
2022/06/18 10:57:44;;;;;;;3.63;0.80;;;22.60;66.20;;;;;;4773840;30;20094;-77
2022/06/18 11:00:18;;;;;;;6.65;0.80;;;22.60;66.50;;;;;;4789085;30;20460;-80
2022/06/18 11:02:45;;;;;;;3.90;0.63;;;22.60;66.60;;;;;;4789395;30;20161;-77
2022/06/18 11:05:34;;;;;;;4.50;0.85;;;22.50;66.50;;;;;;4789733;30;20058;-78
2022/06/18 11:08:04;;;;;;;4.65;1.20;;;22.50;65.30;;;;;;4778812;30;20051;-78
2022/06/18 11:10:37;;;;;;;6.95;1.27;;;22.40;64.60;;;;;;4790472;30;20122;-76
2022/06/18 11:13:06;;;;;;;4.97;1.23;;;22.40;64.60;;;;;;4789508;30;20055;-76
2022/06/18 11:15:37;;;;;;;6.47;1.20;;;22.30;65.20;;;;;;4790115;30;20058;-78
2022/06/18 11:18:19;;;;;;;5.65;1.00;;;22.40;66.00;;;;;;4790095;30;20052;-78
2022/06/18 11:21:01;;;;;;;4.97;0.98;;;22.50;65.30;;;;;;4789493;30;20055;-77
2022/06/18 11:23:27;;;;;;;9.63;2.78;;;22.60;65.90;;;;;;4788974;30;20472;-78
2022/06/18 11:25:57;;;;;;;12.07;3.03;;;22.60;67.00;;;;;;4774252;30;20059;-76
2022/06/18 11:28:33;;;;;;;5.93;1.48;;;22.60;67.20;;;;;;4790015;30;20055;-76
2022/06/18 11:30:59;;;;;;;8.57;1.70;;;22.70;66.10;;;;;;4773781;30;20047;-78
2022/06/18 11:33:37;;;;;;;6.85;1.30;;;22.60;65.60;;;;;;4790713;30;20094;-76
2022/06/18 11:36:26;;;;;;;5.22;2.08;;;22.60;64.80;;;;;;4792525;30;20065;-78
2022/06/18 11:38:57;;;;;;;6.80;1.27;;;22.60;65.50;;;;;;4777516;30;20047;-78
2022/06/18 11:41:38;;;;;;;4.22;1.10;;;22.60;65.30;;;;;;4792903;30;20051;-78
2022/06/18 11:44:23;;;;;;;5.30;1.60;;;22.60;64.80;;;;;;4791955;30;20055;-77
2022/06/18 11:47:06;;;;;;;7.70;1.65;;;22.60;67.60;;;;;;4776679;30;20374;-78
2022/06/18 11:49:57;;;;;;;7.03;1.48;;;22.60;68.20;;;;;;4782996;30;20047;-78
2022/06/18 11:52:39;;;;;;;6.80;1.17;;;22.70;68.00;;;;;;4792245;30;20132;-79
2022/06/18 11:55:20;;;;;;;5.05;1.67;;;22.70;68.00;;;;;;4792215;30;20066;-77
2022/06/18 11:58:37;;;;;;;4.10;0.75;;;22.70;66.90;;;;;;4776358;30;20047;-78
2022/06/18 12:01:28;;;;;;;8.00;1.30;;;22.70;66.60;;;;;;4754480;30;20048;-79
2022/06/18 12:04:21;;;;;;;7.28;1.40;;;22.70;67.60;;;;;;4789647;30;20055;-77
2022/06/18 12:06:59;;;;;;;4.90;1.20;;;22.70;67.40;;;;;;4792336;30;20058;-80
2022/06/18 12:09:27;;;;;;;6.07;1.20;;;22.70;67.50;;;;;;4776310;30;20066;-77
2022/06/18 12:11:59;;;;;;;6.88;0.95;;;22.70;67.40;;;;;;4792507;30;20372;-80
2022/06/18 12:14:55;;;;;;;5.25;1.05;;;22.70;66.90;;;;;;4791565;30;20058;-79
2022/06/18 12:17:55;;;;;;;6.82;1.17;;;22.70;65.20;;;;;;4759225;30;20575;-79
2022/06/18 12:20:35;;;;;;;4.35;0.68;;;22.70;66.30;;;;;;4791743;30;20479;-79
2022/06/18 12:23:32;;;;;;;5.10;1.35;;;22.70;66.00;;;;;;4792343;30;20047;-78
2022/06/18 12:26:29;;;;;;;6.50;1.15;;;22.80;66.30;;;;;;4792122;30;20371;-80
2022/06/18 12:29:20;;;;;;;4.88;1.00;;;22.80;66.30;;;;;;4792176;30;20116;-77
2022/06/18 12:32:03;;;;;;;6.10;1.27;;;22.70;66.10;;;;;;4790202;30;20043;-79
2022/06/18 12:34:57;;;;;;;4.68;1.25;;;22.70;66.20;;;;;;4788334;30;20055;-77
2022/06/18 12:37:30;;;;;;;;;;;22.70;66.20;;;;;;4776615;30;20047;-80
2022/06/18 12:40:20;;;;;;;4.85;1.27;;;22.70;66.50;;;;;;4776026;30;20004;-81
2022/06/18 12:42:54;;;;;;;8.00;1.52;;;22.70;66.80;;;;;;4763934;30;20384;-81
2022/06/18 12:45:27;;;;;;;7.03;0.95;;;22.60;67.10;;;;;;4791172;30;20047;-75
2022/06/18 12:48:07;;;;;;;5.63;1.33;;;22.60;67.40;;;;;;4791696;30;20132;-76
2022/06/18 12:50:47;;;;;;;6.32;1.23;;;22.60;67.00;;;;;;4791920;30;20070;-76
2022/06/18 12:53:53;;;;;;;3.25;0.85;;;22.60;67.10;;;;;;4791706;30;20444;-75
2022/06/18 12:56:31;;;;;;;9.02;1.52;;;22.60;67.40;;;;;;4791710;30;20066;-77
2022/06/18 12:59:29;;;;;;;7.00;1.58;;;22.60;67.60;;;;;;4791497;30;20058;-76
2022/06/18 13:02:01;;;;;;;5.68;1.23;;;22.60;67.70;;;;;;4772847;30;20475;-80
2022/06/18 13:04:38;;;;;;;5.10;0.90;;;22.60;67.60;;;;;;4791549;30;20051;-78
2022/06/18 13:07:16;;;;;;;6.97;1.75;;;22.60;67.70;;;;;;4782108;30;20051;-81
2022/06/18 13:10:04;;;;;;;9.77;1.73;;;22.60;67.60;;;;;;4775360;30;20475;-80
2022/06/18 13:12:50;;;;;;;6.95;1.40;;;22.70;66.70;;;;;;4781657;30;20427;-77
2022/06/18 13:15:16;;;;;;;5.18;1.40;;;22.60;66.50;;;;;;4791214;30;20062;-76
2022/06/18 13:17:55;;;;;;;8.38;1.35;;;22.70;66.60;;;;;;4791010;30;20046;-78
2022/06/18 13:20:47;;;;;;;11.32;1.83;;;22.60;66.70;;;;;;4774904;30;20059;-77
2022/06/18 13:29:07;;;;;;;7.43;1.40;;;22.60;64.60;;;;;;4790915;30;20055;-81
2022/06/18 13:31:53;;;;;;;5.07;0.90;;;22.60;64.50;;;;;;4790841;30;20414;-77
2022/06/18 13:34:39;;;;;;;9.25;1.38;;;22.60;65.10;;;;;;4785885;30;20368;-76
2022/06/18 13:37:12;;;;;;;10.30;1.95;;;22.60;64.60;;;;;;4790828;30;20063;-77
2022/06/18 13:39:45;;;;;;;;;;;22.60;63.90;;;;;;4791632;30;20478;-76
2022/06/18 13:42:19;;;;;;;4.77;1.00;;;22.60;64.50;;;;;;4773405;30;20410;-76
2022/06/18 13:45:09;;;;;;;7.88;1.52;;;22.60;64.40;;;;;;4780561;30;20047;-76
2022/06/18 13:48:22;;;;;;;7.20;1.35;;;22.60;64.20;;;;;;4773852;30;20051;-75
2022/06/18 13:50:50;;;;;;;6.40;1.33;;;22.60;64.80;;;;;;4753178;30;20060;-78
2022/06/18 13:53:35;;;;;;;11.15;2.28;;;22.60;65.30;;;;;;4751278;30;20139;-76
2022/06/18 13:56:14;;;;;;;7.63;1.50;;;22.60;65.50;;;;;;4774696;30;20116;-76
2022/06/18 13:58:48;;;;;;;11.13;1.10;;;22.60;65.50;;;;;;4790374;30;20087;-76
2022/06/18 14:01:16;;;;;;;13.52;2.08;;;22.60;65.50;;;;;;4790401;30;20173;-78
2022/06/18 14:04:15;;;;;;;8.80;1.80;;;22.60;65.50;;;;;;4790720;30;20116;-77
2022/06/18 14:06:54;;;;;;;8.43;1.23;;;22.60;65.20;;;;;;4787262;30;20070;-86
2022/06/18 14:09:23;;;;;;;8.43;1.35;;;22.60;65.10;;;;;;4774375;30;20138;-78
2022/06/18 14:11:59;;;;;;;8.45;1.27;;;22.60;65.10;;;;;;4775179;30;20417;-79
2022/06/18 14:14:31;;;;;;;12.75;2.00;;;22.60;65.30;;;;;;4790571;30;20043;-77
2022/06/18 14:17:13;;;;;;;9.07;1.77;;;22.60;64.50;;;;;;4790255;30;20043;-83
2022/06/18 14:19:57;;;;;;;9.68;1.67;;;22.60;64.10;;;;;;4774264;30;20070;-76
2022/06/18 14:22:26;;;;;;;8.98;1.67;;;22.60;64.10;;;;;;4790357;30;20039;-75
2022/06/18 14:25:00;;;;;;;11.25;1.58;;;22.50;64.20;;;;;;4790450;30;20047;-76
2022/06/18 14:27:45;;;;;;;10.13;1.90;;;22.60;64.00;;;;;;4790501;30;20055;-77
2022/06/18 14:30:36;;;;;;;9.15;1.58;;;22.60;64.60;;;;;;4774224;30;20051;-80
2022/06/18 14:33:11;;;;;;;10.95;2.10;;;22.60;65.00;;;;;;4774632;30;20077;-79
2022/06/18 14:36:00;;;;;;;12.82;2.50;;;22.60;65.30;;;;;;4774221;30;20451;-80
2022/06/18 14:38:26;;;;;;;11.98;2.22;;;22.70;65.50;;;;;;4790489;30;20355;-81
2022/06/18 14:43:55;;;;;;;9.48;1.70;;;22.70;65.60;;;;;;4790522;30;20110;-79
2022/06/18 14:46:21;;;;;;;8.02;2.28;;;22.70;65.80;;;;;;4774251;30;20051;-81
2022/06/18 14:48:59;;;;;;;10.60;1.48;;;22.70;65.90;;;;;;4773951;30;20372;-79
2022/06/18 14:51:28;;;;;;;8.25;1.48;;;22.70;66.30;;;;;;4771656;30;20067;-79
2022/06/18 14:54:05;;;;;;;8.55;1.48;;;22.80;66.40;;;;;;4772386;30;20368;-80
2022/06/18 14:57:05;;;;;;;8.95;2.22;;;22.70;66.50;;;;;;4756946;30;20138;-77
2022/06/18 14:59:39;;;;;;;9.02;2.08;;;22.70;66.70;;;;;;4760464;30;20050;-80
2022/06/18 15:02:11;;;;;;;12.32;1.90;;;22.70;66.10;;;;;;4789451;30;20123;-78
2022/06/18 15:04:49;;;;;;;7.35;1.77;;;22.70;65.60;;;;;;4773937;30;20063;-78
2022/06/18 15:07:15;;;;;;;8.95;2.00;;;22.80;66.00;;;;;;4790014;30;20049;-77
2022/06/18 15:09:46;;;;;;;10.15;2.05;;;22.70;66.00;;;;;;4789649;30;20372;-77
2022/06/18 15:12:14;;;;;;;9.38;1.90;;;22.70;66.10;;;;;;4789754;30;20059;-76
2022/06/18 15:14:52;;;;;;;10.73;1.73;;;22.70;66.20;;;;;;4789866;30;20200;-77
2022/06/18 15:19:54;;;;;;;8.75;1.73;;;22.70;66.80;;;;;;4789176;30;20051;-76
2022/06/18 15:22:57;;;;;;;8.43;1.88;;;22.70;66.30;;;;;;4789752;30;20051;-78
2022/06/18 15:25:43;;;;;;;7.50;1.83;;;22.70;66.30;;;;;;4789522;30;20051;-79
2022/06/18 15:28:18;;;;;;;13.13;1.80;;;22.80;66.00;;;;;;4772205;30;20055;-76
2022/06/18 15:30:48;;;;;;;9.18;1.95;;;22.70;65.70;;;;;;4789957;30;20087;-74
2022/06/18 15:33:21;;;;;;;12.18;2.17;;;22.70;65.50;;;;;;4790138;30;20364;-77
2022/06/18 15:35:54;;;;;;;9.75;2.13;;;22.70;64.80;;;;;;4773959;30;20051;-76
2022/06/18 15:38:30;;;;;;;12.90;2.33;;;22.70;64.30;;;;;;4789474;30;20076;-75
2022/06/18 15:41:00;;;;;;;7.63;1.88;;;22.70;64.10;;;;;;4789338;30;20047;-78
2022/06/18 15:43:31;;;;;;;10.60;2.22;;;22.70;64.00;;;;;;4789904;30;20429;-79
2022/06/18 15:46:01;;;;;;;14.38;2.67;;;22.60;62.80;;;;;;4789428;30;20063;-77
2022/06/18 15:48:40;;;;;;;10.52;2.88;;;22.50;62.10;;;;;;4771963;30;20056;-82
2022/06/18 15:51:18;;;;;;;12.48;2.63;;;22.40;62.60;;;;;;4771563;30;20388;-80
2022/06/18 15:53:51;;;;;;;9.35;2.47;;;22.30;62.70;;;;;;4775440;30;20129;-76
2022/06/18 15:56:26;;;;;;;15.70;3.63;;;22.30;62.30;;;;;;4779848;30;20371;-80
2022/06/18 15:58:52;;;;;;;9.50;3.03;;;22.20;61.90;;;;;;4789344;30;20047;-77
2022/06/18 16:01:20;;;;;;;10.20;2.63;;;22.10;61.50;;;;;;4789604;30;20499;-77
2022/06/18 16:03:48;;;;;;;12.52;2.50;;;22.10;60.50;;;;;;4789564;30;20443;-78
2022/06/18 16:06:18;;;;;;;10.95;2.80;;;22.00;61.60;;;;;;4758657;30;20051;-74
2022/06/18 16:09:07;;;;;;;10.15;2.78;;;21.90;61.10;;;;;;4789308;30;20072;-76
2022/06/18 16:11:35;;;;;;;12.82;3.75;;;21.90;61.40;;;;;;4789166;30;20120;-75
2022/06/18 16:14:13;;;;;;;10.98;2.95;;;21.80;61.60;;;;;;4772965;30;20189;-76
2022/06/18 16:16:59;;;;;;;14.35;3.67;;;21.80;61.70;;;;;;4790421;29;20051;-75
2022/06/18 16:19:28;;;;;;;12.27;2.55;;;21.80;61.60;;;;;;4792425;30;20128;-82
2022/06/18 16:21:59;;;;;;;10.43;2.85;;;21.80;61.50;;;;;;4792142;30;20059;-74
2022/06/18 16:24:31;;;;;;;11.95;2.55;;;21.80;61.60;;;;;;4792203;30;20047;-78
2022/06/18 16:27:03;;;;;;;7.05;2.20;;;21.80;61.60;;;;;;4792434;30;20448;-76
2022/06/18 16:29:31;;;;;;;10.38;2.55;;;21.80;61.50;;;;;;4792809;30;20054;-76